Skip Navigation Links
NOAA logo - Click to go to the NOAA homepage
NOAA's National Weather Service
Alaska Aviation Weather Unit
  NWS logo - Click to go to the NWS homepage
Left Navbar Graphic     09 AKDT = 17 GMT

   
NOAA is celebrating 200 years of science, service, and stewardship. Visit the NOAA 200th celebration Web site to learn more.
USA.gov is the U.S. Government's official Web portal to all Federal, state and local government Web resources and services.
Facebook
NWS on Facebook

Important Change Regarding the AAWU Web Presence

 

Over the last several months, the AAWU has been working to navigate its webpages to a nationally supported server. Security, as well as other needs, have necessitated the change.  In the process, we have made an effort to enhance the functionality of our website, as well as some of our products. As of June 20, 2017, aawu.arh.noaa.gov will be discontinued. The new AAWU web address is weather.gov/aawu. It is now live and will run in-parallel with the old site until it is discontinued. Please send any feedback or questions regarding the new webpages to nws.ar.aawu.webauthors@noaa.gov.  Thank you for your patience during this time of transition.
AAWU Home :: Display TAF Add Bookmark
SPECI PAPM 271115Z AUTO 11004KT 10SM BKN013 01/M01 A2993 RMK AO2
     FZRANO=

METAR PAPM 271156Z AUTO 11006KT 10SM CLR M01/M02 A2992 RMK AO2 SLP136
     70003 T10111022 10039 21011 57004 FZRANO=

METAR PAPM 271256Z AUTO 12007KT 10SM CLR M02/M03 A2992 RMK AO2 SLP136
     T10171028 FZRANO=

SPECI PAPM 271307Z AUTO 15004KT 10SM SCT003 M02/M02 A2993 RMK AO2
     FZRANO=

SPECI PAPM 271315Z AUTO 19005KT 7SM BKN003 M01/M01 A2993 RMK AO2
     FZRANO=

SPECI PAPM 271326Z AUTO 20005KT 2SM BR OVC003 02/01 A2993 RMK AO2 VIS 1
     3/4V4 FZRANO=

SPECI PAPM 271335Z AUTO 20005KT 1 1/2SM BR OVC003 02/01 A2993 RMK AO2
     FZRANO=

SPECI PAPM 271344Z AUTO 19003KT 3SM BR OVC003 02/01 A2993 RMK AO2
 FZRANO=

METAR PAPM 271356Z AUTO 20004KT 8SM OVC003 02/01 A2993 RMK AO2 SLP136
     T00170011 FZRANO=

SPECI PAPM 271454Z AUTO 21004KT 1 3/4SM BR OVC003 01/01 A2993 RMK
 AO2 FZRANO=

METAR PAPM 271456Z AUTO 20004KT 1 3/4SM BR OVC003 01/01 A2993 RMK
 AO2 SLP137 T00110006 52001 FZRANO=

SPECI PAPM 271508Z AUTO 00000KT 3SM BR OVC003 01/00 A2993 RMK AO2
 FZRANO=

SPECI PAPM 271538Z AUTO 00000KT 1 3/4SM BR OVC003 01/00 A2993 RMK AO2
     FZRANO=

SPECI PAPM 271548Z AUTO VRB03KT 3SM BR OVC003 01/01 A2993 RMK AO2
 FZRANO=

METAR PAPM 271556Z AUTO 23003KT 7SM OVC003 01/01 A2993 RMK AO2 SLP138
     T00110006 FZRANO=

METAR PAPM 271656Z AUTO 24003KT 10SM OVC003 02/01 A2993 RMK AO2 SLP137
     T00170011 FZRANO=


NOAA's National Weather Service
Alaska Aviation Weather Unit
6930 Sand Lake Road
Anchorage, AK 99502-1845
Disclaimer
Credits
Glossary
Privacy Policy
About Us
Career Opportunities
Contact AAWU Internet Services Site last modified: April, 17th 2012